Time;durP1;ratioP1;P1;durP2;ratioP2;P2;SDS_P1;SDS_P2;PMS_P1;PMS_P2;Temp;Humidity;BMP_temperature;BMP_pressure;BME280_temperature;BME280_humidity;BME280_pressure;Samples;Min_cycle;Max_cycle;Signal;HPM_P1;HPM_P2
2022/04/02 00:01:26;;;;;;;9.05;6.60;;;0.20;99.90;;;-0.88;100.00;96619.66;5002442;28;20562;-71
2022/04/02 00:03:54;;;;;;;8.60;6.43;;;0.10;99.90;;;-0.84;100.00;96615.38;4998459;28;20072;-70
2022/04/02 00:06:21;;;;;;;10.88;6.40;;;0.10;99.90;;;-0.79;100.00;96623.78;5003149;28;20085;-71
2022/04/02 00:08:48;;;;;;;9.68;6.80;;;0.20;99.90;;;-0.80;100.00;96627.19;5017713;28;20088;-70
2022/04/02 00:11:15;;;;;;;9.93;6.55;;;0.10;99.90;;;-0.85;100.00;96628.94;4998844;28;20543;-70
2022/04/02 00:13:42;;;;;;;9.68;7.40;;;0.20;99.90;;;-0.85;100.00;96619.59;5000645;28;20141;-70
2022/04/02 00:16:09;;;;;;;10.90;6.45;;;0.10;99.90;;;-0.93;100.00;96615.47;5001760;28;20129;-70
2022/04/02 00:18:36;;;;;;;12.00;7.82;;;0.10;99.90;;;-0.90;100.00;96623.06;5017127;28;20129;-70
2022/04/02 00:21:03;;;;;;;10.93;7.30;;;0.10;99.90;;;-0.94;100.00;96622.25;4997586;28;20468;-71
2022/04/02 00:23:36;;;;;;;10.63;6.47;;;0.10;99.90;;;-0.94;100.00;96621.44;5001663;28;20141;-70
2022/04/02 00:26:04;;;;;;;9.98;7.10;;;0.00;99.90;;;-0.88;100.00;96626.44;5003982;28;20050;-71
2022/04/02 00:28:36;;;;;;;11.95;6.20;;;0.10;99.90;;;-0.95;100.00;96625.69;5002501;28;20148;-71
2022/04/02 00:31:05;;;;;;;10.13;6.90;;;0.00;99.90;;;-0.87;100.00;96629.00;5003829;28;20418;-70
2022/04/02 00:33:32;;;;;;;13.43;7.50;;;0.10;99.90;;;-0.87;100.00;96628.13;5005034;28;20063;-69
2022/04/02 00:35:59;;;;;;;10.75;7.78;;;0.10;99.90;;;-0.97;100.00;96624.84;5007949;28;20073;-71
2022/04/02 00:38:27;;;;;;;13.50;7.55;;;0.00;99.90;;;-1.00;100.00;96629.13;5005558;28;20245;-70
2022/04/02 00:40:54;;;;;;;12.13;7.68;;;0.00;99.90;;;-0.96;100.00;96629.06;5007923;28;20132;-71
2022/04/02 00:43:25;;;;;;;9.93;7.20;;;0.00;99.90;;;-0.92;100.00;96633.28;5010293;28;20054;-70
2022/04/02 00:45:54;;;;;;;11.00;6.70;;;0.00;99.90;;;-0.99;100.00;96626.56;5006250;28;20133;-71
2022/04/02 00:48:23;;;;;;;11.43;7.43;;;0.00;99.90;;;-0.86;100.00;96632.38;5003867;28;20111;-71
2022/04/02 00:50:55;;;;;;;9.18;7.40;;;0.00;99.90;;;-0.92;100.00;96628.19;5002616;28;20137;-70
2022/04/02 00:53:33;;;;;;;11.88;6.85;;;0.00;99.90;;;-0.83;100.00;96627.22;5003935;28;20053;-70
2022/04/02 00:56:01;;;;;;;9.48;6.60;;;0.10;99.90;;;-0.75;100.00;96633.06;5004526;28;20500;-71
2022/04/02 00:58:28;;;;;;;10.00;6.22;;;0.10;99.90;;;-0.97;100.00;96622.31;5003508;28;20133;-71
2022/04/02 01:00:55;;;;;;;9.00;5.90;;;0.00;99.90;;;-0.88;100.00;96623.91;5003344;28;20085;-70
2022/04/02 01:03:23;;;;;;;7.25;5.78;;;0.10;99.90;;;-0.85;100.00;96626.41;5002834;28;20057;-71
2022/04/02 01:05:51;;;;;;;9.68;6.97;;;0.10;99.90;;;-0.93;100.00;96629.06;5007124;28;20388;-71
2022/04/02 01:08:18;;;;;;;8.02;6.00;;;0.00;99.90;;;-0.96;100.00;96628.25;5003900;28;20104;-70
2022/04/02 01:10:45;;;;;;;9.15;6.45;;;0.10;99.90;;;-0.95;100.00;96624.84;5017665;28;20077;-70
2022/04/02 01:13:14;;;;;;;9.43;6.35;;;0.00;99.90;;;-1.01;100.00;96630.84;5007601;28;20122;-70
2022/04/02 01:15:43;;;;;;;7.68;5.35;;;0.00;99.90;;;-0.93;100.00;96623.97;5008689;28;20057;-71
2022/04/02 01:18:10;;;;;;;8.07;5.72;;;0.00;99.90;;;-0.87;100.00;96626.44;5003885;28;20145;-71
2022/04/02 01:20:37;;;;;;;7.50;5.20;;;0.10;99.90;;;-0.82;100.00;96636.56;5005440;28;20124;-71
2022/04/02 01:23:04;;;;;;;6.90;5.13;;;0.10;99.90;;;-0.78;100.00;96638.19;5006554;28;20042;-70
2022/04/02 01:25:32;;;;;;;9.38;6.10;;;0.10;99.90;;;-0.77;100.00;96637.34;5008952;28;20046;-71
2022/04/02 01:28:01;;;;;;;9.25;5.03;;;0.20;99.90;;;-0.76;100.00;96638.19;5009319;28;20056;-70
2022/04/02 01:30:30;;;;;;;6.95;5.47;;;0.20;99.90;;;-0.76;100.00;96636.47;5004545;28;20056;-70
2022/04/02 01:32:58;;;;;;;7.72;5.20;;;0.20;99.90;;;-0.67;100.00;96645.72;5005036;28;20105;-70
2022/04/02 01:35:26;;;;;;;9.43;6.90;;;0.10;99.90;;;-0.81;100.00;96638.25;5009742;28;20423;-71
2022/04/02 01:37:53;;;;;;;9.68;5.82;;;0.10;99.90;;;-0.77;100.00;96641.59;5005400;28;20081;-71
2022/04/02 01:40:20;;;;;;;10.15;6.28;;;0.20;99.90;;;-0.82;100.00;96643.34;5001433;28;20071;-70
2022/04/02 01:42:47;;;;;;;9.43;6.70;;;0.10;99.90;;;-0.88;100.00;96644.28;5003728;28;20100;-70
2022/04/02 01:45:15;;;;;;;10.48;6.32;;;0.10;99.90;;;-0.81;100.00;96645.88;5004426;28;20130;-69
2022/04/02 01:47:43;;;;;;;8.98;7.57;;;0.10;99.90;;;-0.86;100.00;96645.09;5007339;28;20096;-70
2022/04/02 01:50:13;;;;;;;13.57;7.75;;;0.10;99.90;;;-0.81;100.00;96653.53;5001014;28;20117;-70
2022/04/02 01:52:40;;;;;;;8.25;6.25;;;0.10;99.90;;;-0.83;100.00;96644.22;5001130;28;21656;-70
2022/04/02 01:55:07;;;;;;;8.10;6.72;;;0.10;99.90;;;-0.89;100.00;96651.09;5007276;28;20474;-70
2022/04/02 01:57:36;;;;;;;7.32;5.20;;;0.00;99.90;;;-0.82;100.00;96649.31;5006696;28;20046;-71
2022/04/02 02:00:05;;;;;;;7.47;6.28;;;0.20;99.90;;;-0.82;100.00;96651.84;5002801;28;20701;-71
2022/04/02 02:02:32;;;;;;;7.72;5.70;;;0.10;99.90;;;-0.77;100.00;96657.72;5007581;28;20069;-70
2022/04/02 02:05:00;;;;;;;8.25;6.53;;;0.20;99.90;;;-0.85;100.00;96647.63;5002983;28;20042;-70
2022/04/02 02:07:27;;;;;;;7.03;5.53;;;0.10;99.90;;;-0.76;100.00;96650.94;5002705;28;20096;-70
2022/04/02 02:09:58;;;;;;;5.88;4.80;;;0.20;99.90;;;-0.75;100.00;96653.47;5004565;28;20080;-70
2022/04/02 02:12:25;;;;;;;6.78;4.97;;;0.20;99.90;;;-0.72;100.00;96650.03;5003956;28;20119;-70
2022/04/02 02:14:52;;;;;;;8.02;5.15;;;0.20;99.90;;;-0.80;100.00;96654.38;5005735;28;20100;-70
2022/04/02 02:17:19;;;;;;;5.85;4.65;;;0.20;99.90;;;-0.75;100.00;96656.00;5003061;28;20089;-71
2022/04/02 02:19:46;;;;;;;8.25;5.95;;;0.20;99.90;;;-0.79;100.00;96656.06;5003901;28;20089;-71
2022/04/02 02:22:13;;;;;;;8.10;5.63;;;0.10;99.90;;;-0.78;100.00;96657.75;5004828;28;20132;-70
2022/04/02 02:24:40;;;;;;;8.02;5.80;;;0.10;99.90;;;-0.74;100.00;96657.69;5004584;28;20065;-71
2022/04/02 02:27:08;;;;;;;8.65;4.97;;;0.10;99.90;;;-0.89;100.00;96665.50;5002426;28;20338;-71
2022/04/02 02:29:35;;;;;;;7.70;5.80;;;0.20;99.90;;;-0.83;100.00;96660.34;5004114;28;20117;-71
2022/04/02 02:32:03;;;;;;;6.55;4.55;;;0.20;99.90;;;-0.69;100.00;96662.72;5005850;28;20073;-71
2022/04/02 02:37:16;;;;;;;10.05;5.70;;;0.10;99.90;;;-0.87;100.00;96664.66;4997739;28;20150;-70
2022/04/02 02:39:43;;;;;;;6.88;4.53;;;0.10;99.90;;;-0.76;100.00;96671.31;5002950;28;20512;-70
2022/04/02 02:42:11;;;;;;;5.60;4.63;;;0.20;99.90;;;-0.81;100.00;96667.97;5002204;28;20101;-70
2022/04/02 02:44:38;;;;;;;8.00;5.20;;;0.20;99.90;;;-0.79;100.00;96682.38;5002050;28;20516;-70
2022/04/02 02:47:06;;;;;;;5.95;4.65;;;0.20;99.90;;;-0.71;100.00;96679.72;5001706;28;20076;-71
2022/04/02 02:49:33;;;;;;;11.32;4.60;;;0.20;99.90;;;-0.73;100.00;96674.69;5000325;28;20136;-70
2022/04/02 02:52:00;;;;;;;7.03;4.88;;;0.20;99.90;;;-0.78;100.00;96673.03;5004097;28;20109;-71
2022/04/02 02:54:27;;;;;;;6.28;4.50;;;0.20;99.90;;;-0.86;100.00;96676.53;5018791;28;20082;-71
2022/04/02 02:56:54;;;;;;;7.40;5.13;;;0.10;99.90;;;-0.81;100.00;96683.28;4999874;28;20454;-71
2022/04/02 02:59:21;;;;;;;7.53;4.20;;;0.10;99.90;;;-0.82;100.00;96677.34;5003319;28;20046;-70
2022/04/02 03:01:48;;;;;;;8.10;4.97;;;0.10;99.90;;;-0.80;100.00;96680.69;5003224;28;20042;-71
2022/04/02 03:04:15;;;;;;;6.60;5.07;;;0.10;99.90;;;-0.82;100.00;96679.88;5002456;28;20053;-71
2022/04/02 03:06:42;;;;;;;7.28;4.68;;;0.10;99.90;;;-0.79;100.00;96679.84;5008573;28;20138;-71
2022/04/02 03:09:09;;;;;;;6.30;4.38;;;0.10;99.90;;;-0.74;100.00;96685.72;5002523;28;20050;-71
2022/04/02 03:11:36;;;;;;;8.25;4.97;;;0.10;99.90;;;-0.75;100.00;96686.59;5003941;28;20076;-70
2022/04/02 03:14:03;;;;;;;7.93;4.75;;;0.20;99.90;;;-0.77;100.00;96685.75;5004071;28;20101;-70
2022/04/02 03:16:32;;;;;;;9.45;5.95;;;0.10;99.90;;;-0.87;100.00;96685.03;4991392;28;20105;-71
2022/04/02 03:19:00;;;;;;;7.07;5.25;;;0.10;99.90;;;-0.96;100.00;96689.38;5003432;28;20057;-71
2022/04/02 03:21:28;;;;;;;6.05;4.93;;;0.00;99.90;;;-0.86;100.00;96694.34;5002263;28;20534;-70
2022/04/02 03:23:56;;;;;;;9.13;4.97;;;0.10;99.90;;;-0.95;100.00;96696.16;4986498;28;20046;-71
2022/04/02 03:26:26;;;;;;;6.50;4.40;;;0.00;99.90;;;-0.93;100.00;96705.47;5002080;28;20049;-70
2022/04/02 03:28:53;;;;;;;8.82;4.80;;;0.00;99.90;;;-0.92;100.00;96703.75;5003627;28;20120;-70
2022/04/02 03:31:21;;;;;;;6.68;4.40;;;0.00;99.90;;;-1.02;100.00;96708.13;5004201;28;20080;-70
2022/04/02 03:33:49;;;;;;;6.35;4.30;;;0.00;99.90;;;-0.92;100.00;96711.41;5007115;28;20424;-71
2022/04/02 03:36:16;;;;;;;7.10;5.03;;;0.00;99.90;;;-1.05;100.00;96708.13;5008008;28;20132;-71
2022/04/02 03:38:44;;;;;;;7.63;5.20;;;-0.10;99.90;;;-1.07;100.00;96704.78;5003097;28;20132;-70
2022/04/02 03:41:13;;;;;;;9.07;5.00;;;-0.10;99.90;;;-1.07;100.00;96708.19;5010553;28;20137;-70
2022/04/02 03:43:40;;;;;;;8.23;4.90;;;-0.10;99.90;;;-1.11;100.00;96700.59;5004906;28;20578;-71
2022/04/02 03:48:56;;;;;;;7.70;4.57;;;-0.20;99.90;;;-1.12;100.00;96711.63;5001698;28;20077;-71
2022/04/02 03:51:22;;;;;;;8.55;4.65;;;-0.10;99.90;;;-1.16;100.00;96717.63;5004074;28;20086;-71
2022/04/02 03:53:50;;;;;;;9.65;4.80;;;-0.20;99.90;;;-1.13;100.00;96718.41;4999216;28;20048;-70
2022/04/02 03:56:17;;;;;;;8.27;5.00;;;-0.20;99.90;;;-1.07;100.00;96715.81;5003703;28;20512;-71
2022/04/02 03:58:44;;;;;;;11.70;5.00;;;-0.20;99.90;;;-1.16;100.00;96715.06;5003858;28;20156;-71
2022/04/02 04:01:11;;;;;;;6.15;4.40;;;-0.20;99.90;;;-1.12;100.00;96717.56;5006259;28;20133;-71
2022/04/02 04:03:37;;;;;;;6.50;4.32;;;-0.20;99.90;;;-0.95;100.00;96725.03;5004425;28;20086;-71
2022/04/02 04:06:04;;;;;;;8.38;4.78;;;-0.10;99.90;;;-1.12;100.00;96725.22;5001296;28;20514;-71
2022/04/02 04:08:35;;;;;;;11.65;5.15;;;-0.20;99.90;;;-1.15;100.00;96732.03;5002326;28;20061;-71
2022/04/02 04:11:03;;;;;;;10.13;5.00;;;-0.20;99.90;;;-1.12;100.00;96730.31;5003889;28;20049;-71
2022/04/02 04:13:30;;;;;;;10.00;4.72;;;-0.20;99.90;;;-1.09;100.00;96721.78;4996655;28;20137;-71
2022/04/02 04:15:57;;;;;;;7.18;3.92;;;-0.10;99.90;;;-1.01;100.00;96731.88;5001207;28;20041;-71
2022/04/02 04:18:24;;;;;;;7.15;4.28;;;-0.10;99.90;;;-0.99;100.00;96736.09;5020879;28;20504;-70
2022/04/02 04:20:51;;;;;;;6.03;4.40;;;-0.10;99.90;;;-0.98;100.00;96731.84;5003681;28;20125;-71
2022/04/02 04:23:18;;;;;;;9.80;5.05;;;-0.10;99.90;;;-1.09;100.00;96732.81;5000392;28;20050;-71
2022/04/02 04:25:44;;;;;;;6.95;4.78;;;-0.10;99.90;;;-1.04;100.00;96734.47;5002490;28;20504;-71
2022/04/02 04:28:11;;;;;;;6.65;4.45;;;-0.10;99.90;;;-1.16;100.00;96736.28;4999685;28;20546;-71
2022/04/02 04:30:39;;;;;;;8.32;4.80;;;-0.10;99.90;;;-1.21;100.00;96738.00;4999579;28;20763;-70
2022/04/02 04:33:06;;;;;;;7.72;4.53;;;-0.20;99.90;;;-1.09;100.00;96747.25;5000170;28;20587;-71
2022/04/02 04:35:34;;;;;;;9.05;5.53;;;-0.20;99.90;;;-1.15;100.00;96745.59;5000662;28;20050;-71
2022/04/02 04:38:01;;;;;;;7.85;5.15;;;-0.20;99.90;;;-1.22;100.00;96745.69;4999144;28;20077;-71
2022/04/02 04:40:28;;;;;;;8.60;5.00;;;-0.20;99.90;;;-1.34;100.00;96759.38;5001217;28;20165;-72
2022/04/02 04:42:56;;;;;;;19.88;5.05;;;-0.30;99.90;;;-1.37;100.00;96754.28;5001359;28;20096;-71
2022/04/02 04:45:23;;;;;;;6.40;4.82;;;-0.30;99.90;;;-1.37;100.00;96760.25;5004465;28;20046;-71
2022/04/02 04:47:51;;;;;;;6.85;4.70;;;-0.30;99.90;;;-1.33;100.00;96761.88;5019560;28;20057;-71
2022/04/02 04:50:19;;;;;;;8.48;4.82;;;-0.40;99.90;;;-1.35;100.00;96758.50;5006660;28;20612;-71
2022/04/02 04:52:46;;;;;;;7.50;5.68;;;-0.30;99.90;;;-1.34;100.00;96767.00;5000986;28;20062;-71
2022/04/02 04:55:12;;;;;;;8.82;4.65;;;-0.40;99.90;;;-1.20;100.00;96770.28;4998949;28;20483;-70
2022/04/02 04:57:40;;;;;;;9.05;4.65;;;-0.30;99.90;;;-1.25;100.00;96772.03;5004095;28;20050;-71
2022/04/02 05:00:07;;;;;;;9.23;5.15;;;-0.30;99.90;;;-1.29;100.00;96778.84;5005848;28;20924;-70
2022/04/02 05:02:35;;;;;;;6.75;4.68;;;-0.30;99.90;;;-1.22;100.00;96783.88;5005023;28;20080;-71
2022/04/02 05:05:02;;;;;;;9.55;5.40;;;-0.30;99.90;;;-1.23;100.00;96780.50;5003555;28;20129;-70
2022/04/02 05:07:50;;;;;;;7.65;4.40;;;-0.30;99.90;;;-1.16;100.00;96787.22;4997158;28;20066;-71
2022/04/02 05:10:17;;;;;;;8.15;4.30;;;-0.30;99.90;;;-1.16;100.00;96794.03;5004054;28;20073;-71
2022/04/02 05:12:45;;;;;;;9.25;4.43;;;-0.20;99.90;;;-1.21;100.00;96798.28;5005508;28;20073;-71
2022/04/02 05:15:13;;;;;;;7.95;4.88;;;-0.20;99.90;;;-1.20;100.00;96792.34;5006535;28;20054;-71
2022/04/02 05:17:40;;;;;;;7.22;4.57;;;-0.30;99.90;;;-1.15;100.00;96793.16;5006794;28;20050;-71
2022/04/02 05:20:11;;;;;;;7.55;4.82;;;-0.30;99.90;;;-1.16;100.00;96792.31;5004413;28;20073;-70
2022/04/02 05:22:38;;;;;;;7.47;4.38;;;-0.20;99.90;;;-1.10;100.00;96801.59;5004800;28;20128;-70
2022/04/02 05:25:06;;;;;;;9.45;5.63;;;-0.20;99.90;;;-1.08;100.00;96800.72;5005123;28;20071;-70
2022/04/02 05:27:33;;;;;;;6.63;4.55;;;-0.20;99.90;;;-1.15;100.00;96805.88;5003383;28;20088;-71
2022/04/02 05:30:01;;;;;;;12.20;5.47;;;-0.10;99.90;;;-1.20;100.00;96807.63;5003526;28;20052;-70
2022/04/02 05:32:28;;;;;;;8.95;4.97;;;-0.20;99.90;;;-1.24;100.00;96804.25;5006492;28;20136;-70
2022/04/02 05:34:55;;;;;;;8.68;5.03;;;-0.30;99.90;;;-1.28;100.00;96813.63;5003043;28;20206;-70
2022/04/02 05:37:23;;;;;;;8.35;5.07;;;-0.20;99.90;;;-1.28;100.00;96822.94;5001752;28;20086;-70
2022/04/02 05:39:50;;;;;;;7.90;4.65;;;-0.30;99.90;;;-1.30;100.00;96827.22;5005331;28;20136;-69
2022/04/02 05:42:18;;;;;;;8.70;3.95;;;-0.30;99.90;;;-1.32;100.00;96821.31;5007498;28;20229;-70
2022/04/02 05:44:45;;;;;;;8.55;4.32;;;-0.30;99.90;;;-1.30;100.00;96832.31;4990336;28;20076;-70
2022/04/02 05:47:12;;;;;;;6.55;4.78;;;-0.30;99.90;;;-1.37;100.00;96834.06;5006141;28;20145;-70
2022/04/02 05:49:47;;;;;;;6.57;4.40;;;-0.40;99.90;;;-1.41;100.00;96842.59;5007867;28;20049;-70
2022/04/02 05:52:14;;;;;;;6.28;4.10;;;-0.40;99.90;;;-1.40;100.00;96835.78;5002054;28;20117;-70
2022/04/02 05:54:42;;;;;;;7.45;4.00;;;-0.40;99.90;;;-1.34;100.00;96834.03;5010250;28;20100;-71
2022/04/02 05:57:10;;;;;;;8.13;3.92;;;-0.30;99.90;;;-1.30;100.00;96845.91;5022948;28;20090;-70
2022/04/02 05:59:38;;;;;;;7.78;4.30;;;-0.40;99.90;;;-1.32;100.00;96845.06;5028900;28;20049;-70
2022/04/02 06:02:08;;;;;;;5.90;3.72;;;-0.30;99.90;;;-1.38;100.00;96846.81;5009350;28;20074;-71
2022/04/02 06:04:35;;;;;;;6.70;3.85;;;-0.40;99.90;;;-1.32;100.00;96851.88;5008440;28;20086;-70
2022/04/02 06:07:02;;;;;;;6.90;4.35;;;-0.30;99.90;;;-1.27;100.00;96855.22;5008439;28;20041;-70
2022/04/02 06:09:31;;;;;;;7.40;3.70;;;-0.30;99.90;;;-1.26;100.00;96859.44;5012297;28;20073;-70
2022/04/02 06:11:58;;;;;;;6.00;4.10;;;-0.30;99.90;;;-1.28;100.00;96864.56;5012322;28;20081;-72
2022/04/02 06:14:25;;;;;;;7.97;4.68;;;-0.30;99.90;;;-1.34;100.00;96867.13;5015086;28;20046;-70
2022/04/02 06:16:52;;;;;;;7.57;4.53;;;-0.30;99.90;;;-1.38;100.00;96859.53;5010806;28;20046;-71
2022/04/02 06:19:19;;;;;;;8.52;4.68;;;-0.40;99.90;;;-1.47;100.00;96868.06;5009196;28;20053;-70
2022/04/02 06:21:46;;;;;;;13.63;5.40;;;-0.40;99.90;;;-1.48;100.00;96862.13;5014132;28;20061;-70
2022/04/02 06:24:14;;;;;;;8.50;5.35;;;-0.50;99.90;;;-1.43;100.00;96871.47;5005375;28;20141;-69
2022/04/02 06:26:41;;;;;;;5.90;4.30;;;-0.50;99.90;;;-1.34;100.00;96879.88;5012217;28;20054;-70
2022/04/02 06:29:08;;;;;;;9.40;5.10;;;-0.40;99.90;;;-1.42;100.00;96879.06;5014093;28;20042;-70
2022/04/02 06:31:35;;;;;;;7.93;4.70;;;-0.50;99.90;;;-1.47;100.00;96879.09;5010647;28;20052;-70
2022/04/02 06:34:02;;;;;;;8.00;5.28;;;-0.50;99.90;;;-1.37;100.00;96879.91;5011424;28;20136;-71
2022/04/02 06:36:29;;;;;;;7.28;4.68;;;-0.40;99.90;;;-1.34;100.00;96882.41;5007340;28;20133;-70
2022/04/02 06:38:56;;;;;;;7.38;5.00;;;-0.30;99.90;;;-1.28;100.00;96887.47;5004649;28;20449;-70
2022/04/02 06:41:24;;;;;;;10.20;5.07;;;-0.40;99.90;;;-1.43;100.00;96895.19;5005998;28;20120;-70
2022/04/02 06:43:51;;;;;;;8.77;5.40;;;-0.40;99.90;;;-1.42;100.00;96889.25;5009015;28;20049;-70
2022/04/02 06:46:18;;;;;;;7.95;4.60;;;-0.50;99.90;;;-1.43;100.00;96895.19;5006092;28;20077;-71
2022/04/02 06:48:51;;;;;;;8.15;4.47;;;-0.40;99.90;;;-1.40;100.00;96896.88;5007797;28;20132;-70
2022/04/02 06:51:19;;;;;;;8.10;5.22;;;-0.40;99.90;;;-1.43;100.00;96902.84;5004339;28;20088;-70
2022/04/02 06:53:45;;;;;;;6.57;4.75;;;-0.50;99.90;;;-1.34;100.00;96910.41;5001304;28;20046;-70
2022/04/02 06:56:13;;;;;;;7.53;5.03;;;-0.40;99.90;;;-1.25;100.00;96914.59;5003976;28;20133;-70
2022/04/02 06:58:40;;;;;;;8.95;4.70;;;-0.30;99.90;;;-1.21;100.00;96911.16;5009006;28;20050;-70
2022/04/02 07:01:07;;;;;;;7.32;4.55;;;-0.30;99.90;;;-1.42;100.00;96922.34;5003897;28;20124;-70
2022/04/02 07:03:37;;;;;;;6.75;5.20;;;-0.30;99.90;;;-1.39;100.00;96932.53;5020548;28;20106;-70
2022/04/02 07:06:04;;;;;;;7.70;4.43;;;-0.40;99.90;;;-1.24;100.00;96923.09;5001150;28;20058;-70
2022/04/02 07:08:31;;;;;;;6.85;4.90;;;-0.20;99.90;;;-1.32;100.00;96920.59;5007086;28;20133;-71
2022/04/02 07:10:58;;;;;;;9.70;4.57;;;-0.30;99.90;;;-1.22;100.00;96931.56;5002854;28;20050;-71
2022/04/02 07:13:25;;;;;;;7.63;4.78;;;-0.20;99.90;;;-1.36;100.00;96936.75;5003829;28;20137;-71
2022/04/02 07:15:52;;;;;;;8.48;5.65;;;-0.30;99.90;;;-1.41;100.00;96933.38;5005273;28;20052;-71
2022/04/02 07:18:21;;;;;;;8.35;4.20;;;-0.30;99.90;;;-1.27;100.00;96940.06;5002082;28;20136;-70
2022/04/02 07:20:51;;;;;;;7.70;5.35;;;-0.20;99.90;;;-1.20;100.00;96937.50;5001607;28;20536;-71
2022/04/02 07:23:19;;;;;;;7.55;4.88;;;-0.20;99.90;;;-1.28;100.00;96938.41;5001298;28;20832;-71
2022/04/02 07:25:50;;;;;;;8.30;4.70;;;-0.20;99.90;;;-1.31;100.00;96952.84;5006081;28;20069;-70
2022/04/02 07:28:19;;;;;;;10.20;4.80;;;-0.20;99.90;;;-1.34;100.00;96948.59;5001944;28;20042;-71
2022/04/02 07:30:46;;;;;;;7.13;5.00;;;-0.20;99.90;;;-1.20;100.00;96948.53;4995057;28;20050;-71
2022/04/02 07:33:14;;;;;;;7.78;5.55;;;-0.20;99.90;;;-1.32;100.00;96954.53;5004216;28;20476;-70
2022/04/02 07:36:05;;;;;;;8.85;5.07;;;-0.20;99.90;;;-1.17;100.00;96956.13;5004598;28;20105;-69
2022/04/02 07:38:39;;;;;;;8.63;5.53;;;-0.10;99.90;;;-1.23;100.00;96962.97;5017990;28;20137;-71
2022/04/02 07:41:33;;;;;;;8.35;5.43;;;-0.20;99.90;;;-1.28;100.00;96971.50;4992160;28;20081;-71
2022/04/02 07:44:20;;;;;;;8.02;5.10;;;-0.20;99.90;;;-1.24;100.00;96971.47;4999734;28;20057;-71
2022/04/02 07:46:48;;;;;;;7.57;4.93;;;-0.10;99.90;;;-1.14;100.00;96979.06;5015497;28;20085;-71
2022/04/02 07:49:21;;;;;;;7.88;4.97;;;-0.10;99.90;;;-1.17;100.00;96986.69;5001700;28;20049;-70
2022/04/02 07:51:53;;;;;;;7.53;5.28;;;-0.20;99.90;;;-1.16;100.00;96982.47;5002684;28;20069;-70
2022/04/02 07:54:26;;;;;;;11.18;4.95;;;-0.10;99.90;;;-1.23;100.00;96986.75;5002714;28;20078;-71
2022/04/02 07:57:03;;;;;;;7.63;4.30;;;-0.10;99.90;;;-1.25;100.00;96985.91;5009446;28;20079;-71
2022/04/02 07:59:42;;;;;;;7.72;4.30;;;-0.10;99.90;;;-1.26;100.00;96990.13;5000270;28;20088;-70
2022/04/02 08:05:00;;;;;;;7.50;4.82;;;-0.10;99.90;;;-1.25;100.00;97003.72;5000023;28;20042;-70
2022/04/02 08:07:32;;;;;;;8.10;4.70;;;-0.10;99.90;;;-1.24;100.00;97002.88;5002809;28;20050;-71
2022/04/02 08:10:02;;;;;;;9.45;4.65;;;-0.10;99.90;;;-1.19;100.00;96998.59;4997535;28;20370;-71
2022/04/02 08:12:33;;;;;;;8.50;5.00;;;0.00;99.90;;;-1.20;100.00;96996.91;5005519;28;20116;-70
2022/04/02 08:15:04;;;;;;;7.25;4.35;;;-0.10;99.90;;;-1.32;100.00;97005.47;5001864;28;20050;-71
2022/04/02 08:17:32;;;;;;;8.95;4.80;;;-0.10;99.90;;;-1.06;100.00;97004.47;5002092;28;20053;-71
2022/04/02 08:20:01;;;;;;;7.47;4.20;;;0.00;99.90;;;-1.07;100.00;97010.44;4998919;28;20180;-71
2022/04/02 08:22:29;;;;;;;8.57;4.85;;;0.10;99.90;;;-1.12;100.00;97018.09;5003492;28;20140;-71
2022/04/02 08:24:58;;;;;;;9.55;4.45;;;0.10;99.90;;;-1.10;100.00;97007.88;5000144;28;20104;-71
2022/04/02 08:27:55;;;;;;;6.35;4.80;;;0.00;99.90;;;-0.82;100.00;97018.75;5003526;28;20046;-70
2022/04/02 08:30:32;;;;;;;6.60;4.18;;;0.20;99.90;;;-0.72;100.00;97017.81;5000906;28;20136;-70
2022/04/02 08:33:37;;;;;;;7.30;4.55;;;0.40;99.90;;;-0.85;100.00;97019.59;5000149;28;20046;-71
2022/04/02 08:36:25;;;;;;;8.63;4.50;;;0.30;99.90;;;-0.75;100.00;97020.41;4999642;28;20130;-71
2022/04/02 08:39:09;;;;;;;6.95;4.82;;;0.40;99.90;;;-0.99;100.00;97025.66;5000098;28;20504;-71
2022/04/02 08:42:01;;;;;;;8.00;4.68;;;0.20;99.90;;;-0.90;100.00;97034.09;5020290;28;20073;-72
2022/04/02 08:44:59;;;;;;;7.95;4.43;;;0.30;99.90;;;-0.88;100.00;97039.19;5001679;28;20077;-71
2022/04/02 08:48:18;;;;;;;7.68;4.35;;;0.30;99.90;;;-0.92;100.00;97045.13;5003252;28;20098;-71
2022/04/02 08:50:48;;;;;;;8.00;4.95;;;0.30;99.90;;;-0.88;100.00;97045.09;5001656;28;20046;-71
2022/04/02 08:53:28;;;;;;;13.88;4.32;;;0.20;99.90;;;-1.00;100.00;97051.97;5006413;28;20057;-72
2022/04/02 08:56:03;;;;;;;7.88;4.10;;;0.30;99.90;;;-0.92;100.00;97052.78;5009909;28;20068;-71
2022/04/02 08:59:17;;;;;;;10.05;5.03;;;0.30;99.90;;;-0.94;100.00;97057.03;4988466;28;20109;-71
2022/04/02 09:01:53;;;;;;;;;;;0.20;99.90;;;-0.96;100.00;97061.28;5007294;28;20065;-71
2022/04/02 09:05:01;;;;;;;9.75;5.95;;;0.20;99.90;;;-1.01;100.00;97056.22;5002983;28;20024;-71
2022/04/02 09:07:52;;;;;;;8.25;5.30;;;0.10;99.90;;;-0.54;100.00;97070.38;5016053;28;20579;-70
2022/04/02 09:10:53;;;;;;;8.32;5.25;;;0.50;99.90;;;-0.71;100.00;97075.59;5003520;28;20094;-71
2022/04/02 09:14:12;;;;;;;8.65;4.38;;;0.40;99.90;;;-0.88;100.00;97078.22;5001170;28;20503;-71
2022/04/02 09:17:00;;;;;;;9.00;4.57;;;0.40;99.90;;;-0.92;100.00;97075.72;5005465;28;20468;-70
2022/04/02 09:19:52;;;;;;;7.60;4.47;;;0.30;99.90;;;-0.75;100.00;97070.50;5002281;28;20108;-71
2022/04/02 09:22:35;;;;;;;7.90;4.20;;;0.40;99.90;;;-0.60;100.00;97082.31;5005832;28;20058;-71
2022/04/02 09:25:23;;;;;;;8.32;4.40;;;0.50;99.90;;;-0.50;100.00;97078.84;5008840;28;20057;-71
2022/04/02 09:28:19;;;;;;;9.98;4.32;;;0.60;99.90;;;-0.33;100.00;97084.69;5005680;28;20054;-71
2022/04/02 09:31:28;;;;;;;6.85;4.40;;;0.70;99.90;;;-0.18;100.00;97086.28;5007400;28;20151;-71
2022/04/02 09:34:17;;;;;;;5.93;3.72;;;0.90;99.90;;;-0.11;100.00;97087.09;5008581;28;20097;-72
2022/04/02 09:37:04;;;;;;;5.88;4.00;;;1.00;99.90;;;0.16;100.00;97088.50;5003660;28;20161;-71
2022/04/02 09:40:08;;;;;;;6.55;3.80;;;1.30;99.90;;;0.09;100.00;97090.31;5019391;28;20532;-71
2022/04/02 09:42:37;;;;;;;7.15;3.95;;;1.20;99.90;;;0.07;100.00;97099.69;5003654;28;20141;-70
2022/04/02 09:45:21;;;;;;;5.63;3.72;;;1.40;99.90;;;0.20;100.00;97085.09;5004678;28;20811;-70
2022/04/02 09:47:51;;;;;;;10.10;3.88;;;1.50;99.90;;;0.20;100.00;97087.63;5006399;28;20049;-71
2022/04/02 09:50:21;;;;;;;6.68;3.67;;;1.50;99.90;;;0.20;100.00;97085.91;5004369;28;20054;-70
2022/04/02 09:53:24;;;;;;;8.30;3.83;;;1.40;99.90;;;0.07;100.00;97094.56;4999352;28;20544;-71
2022/04/02 09:56:26;;;;;;;4.53;3.17;;;1.50;99.90;;;0.10;100.00;97099.63;5003161;28;20078;-72
2022/04/02 09:59:12;;;;;;;7.10;3.90;;;1.40;99.90;;;0.09;100.00;97097.09;4999433;28;20043;-70
2022/04/02 10:02:03;;;;;;;8.80;3.80;;;1.30;99.90;;;0.07;100.00;97106.47;5005545;28;20125;-71
2022/04/02 10:04:48;;;;;;;7.70;2.75;;;1.30;99.90;;;0.09;100.00;97104.75;5016321;28;20459;-69
2022/04/02 10:08:04;;;;;;;6.75;2.65;;;1.30;99.90;;;-0.04;100.00;97098.91;5001936;28;20053;-71
2022/04/02 10:10:32;;;;;;;4.82;3.08;;;1.20;99.90;;;0.30;100.00;97104.56;5006919;28;20077;-71
2022/04/02 10:13:02;;;;;;;6.35;3.22;;;1.40;99.90;;;0.07;100.00;97109.00;5005281;28;20124;-71
2022/04/02 10:15:32;;;;;;;5.53;3.22;;;1.40;99.90;;;0.26;100.00;97104.63;5004507;28;20054;-71
2022/04/02 10:18:03;;;;;;;7.30;3.83;;;1.50;99.90;;;0.27;100.00;97109.69;5000496;28;20132;-71
2022/04/02 10:20:33;;;;;;;5.43;2.80;;;1.60;99.90;;;0.28;100.00;97108.84;5003838;28;20133;-71
2022/04/02 10:23:29;;;;;;;9.75;3.35;;;1.70;99.90;;;0.10;100.00;97102.19;5000035;28;20485;-71
2022/04/02 10:26:08;;;;;;;19.33;3.72;;;1.60;99.90;;;-0.02;100.00;97102.31;5001707;28;20096;-71
2022/04/02 10:28:58;;;;;;;6.07;3.53;;;1.40;99.90;;;-0.04;100.00;97114.22;5004179;28;20081;-71
2022/04/02 10:31:55;;;;;;;10.60;4.20;;;1.30;99.90;;;-0.08;100.00;97118.50;5002114;28;20165;-71
2022/04/02 10:35:11;;;;;;;7.30;3.40;;;1.30;99.90;;;0.27;100.00;97119.91;4975499;28;20042;-71
2022/04/02 10:38:12;;;;;;;10.70;3.00;;;1.80;99.90;;;0.77;100.00;97123.63;4965303;28;20086;-71
2022/04/02 10:40:48;;;;;;;7.13;3.33;;;2.10;99.90;;;0.58;100.00;97114.50;5001937;28;20564;-71
2022/04/02 10:43:28;;;;;;;6.45;3.78;;;2.00;99.90;;;0.36;100.00;97124.91;5000531;28;20057;-73
2022/04/02 10:45:57;;;;;;;8.48;3.60;;;1.80;99.90;;;0.57;100.00;97121.31;5004038;28;20484;-75